createdAt,value
2023-03-11T00:01:04.550Z,976.3
2023-03-11T00:03:52.546Z,976.3
2023-03-11T00:06:40.170Z,976.3
2023-03-11T00:09:27.821Z,976.3
2023-03-11T00:12:18.690Z,976.3
2023-03-11T00:15:06.726Z,976.3
2023-03-11T00:17:55.841Z,976.2
2023-03-11T00:20:43.623Z,976.2
2023-03-11T00:23:32.110Z,976.2
2023-03-11T00:26:20.346Z,976.2
2023-03-11T00:29:07.945Z,976.2
2023-03-11T00:31:55.523Z,976.3
2023-03-11T00:34:43.208Z,976.2
2023-03-11T00:37:30.931Z,976.2
2023-03-11T00:40:18.780Z,976.2
2023-03-11T00:43:08.809Z,976.2
2023-03-11T00:45:56.724Z,976.2
2023-03-11T00:48:44.320Z,976.1
2023-03-11T00:51:34.175Z,976.1
2023-03-11T00:54:22.740Z,976.1
2023-03-11T00:57:11.693Z,976.1
2023-03-11T00:59:59.325Z,976
2023-03-11T01:02:47.074Z,976
2023-03-11T01:05:34.822Z,976
2023-03-11T01:08:22.516Z,975.9
2023-03-11T01:11:12.127Z,976
2023-03-11T01:13:59.853Z,976
2023-03-11T01:16:49.011Z,976
2023-03-11T01:19:38.435Z,976
2023-03-11T01:22:26.306Z,976
2023-03-11T01:25:13.907Z,975.9
2023-03-11T01:28:03.796Z,975.9
2023-03-11T01:30:53.046Z,975.9
2023-03-11T01:33:40.685Z,975.9
2023-03-11T01:36:28.451Z,975.9
2023-03-11T01:39:17.157Z,975.9
2023-03-11T01:42:15.046Z,975.9
2023-03-11T01:45:02.680Z,975.9
2023-03-11T01:48:17.088Z,975.9
2023-03-11T01:51:04.771Z,975.9
2023-03-11T01:53:53.764Z,975.9
2023-03-11T01:56:44.998Z,975.9
2023-03-11T01:59:34.295Z,975.8
2023-03-11T02:02:25.912Z,975.9
2023-03-11T02:05:19.419Z,975.8
2023-03-11T02:08:08.957Z,975.9
2023-03-11T02:10:56.612Z,975.9
2023-03-11T02:13:44.740Z,975.9
2023-03-11T02:16:33.832Z,975.9
2023-03-11T02:19:22.151Z,975.9
2023-03-11T02:22:21.403Z,975.9
2023-03-11T02:25:10.005Z,976
2023-03-11T02:28:06.641Z,975.9
2023-03-11T02:30:57.773Z,976
2023-03-11T02:33:45.592Z,976
2023-03-11T02:36:36.554Z,976
2023-03-11T02:39:26.850Z,976.1
2023-03-11T02:43:29.791Z,976.2
2023-03-11T02:46:26.819Z,976.3
2023-03-11T02:49:14.558Z,976.3
2023-03-11T02:52:02.354Z,976.3
2023-03-11T02:54:51.354Z,976.4
2023-03-11T02:57:38.945Z,976.5
2023-03-11T03:00:26.776Z,976.4
2023-03-11T03:03:14.554Z,976.4
2023-03-11T03:06:02.299Z,976.4
2023-03-11T03:08:50.822Z,976.5
2023-03-11T03:11:38.432Z,976.6
2023-03-11T03:14:26.310Z,976.7
2023-03-11T03:17:14.836Z,976.7
2023-03-11T03:20:03.242Z,976.7
2023-03-11T03:22:57.237Z,976.8
2023-03-11T03:25:45.701Z,976.9
2023-03-11T03:28:33.306Z,977
2023-03-11T03:31:21.029Z,977
2023-03-11T03:34:09.814Z,976.9
2023-03-11T03:36:57.354Z,977
2023-03-11T03:39:45.120Z,977.1
2023-03-11T03:42:32.858Z,977.2
2023-03-11T03:45:20.940Z,977.3
2023-03-11T03:48:08.606Z,977.4
2023-03-11T03:50:56.330Z,977.4
2023-03-11T03:53:52.478Z,977.5
2023-03-11T03:56:40.301Z,977.5
2023-03-11T03:59:30.117Z,977.7
2023-03-11T04:02:24.916Z,977.7
2023-03-11T04:05:13.739Z,977.7
2023-03-11T04:08:01.567Z,977.7
2023-03-11T04:10:49.378Z,977.9
2023-03-11T04:13:42.546Z,977.8
2023-03-11T04:16:30.298Z,977.9
2023-03-11T04:19:18.408Z,978
2023-03-11T04:22:06.102Z,977.9
2023-03-11T04:24:54.498Z,978
2023-03-11T04:27:42.077Z,978
2023-03-11T04:30:30.881Z,978.2
2023-03-11T04:33:18.933Z,978.2
2023-03-11T04:36:06.651Z,978.2
2023-03-11T04:38:55.522Z,978.3
2023-03-11T04:41:43.386Z,978.4
2023-03-11T04:44:31.088Z,978.4
2023-03-11T04:47:21.284Z,978.5
2023-03-11T04:50:09.280Z,978.6
2023-03-11T04:52:57.043Z,978.7
2023-03-11T04:55:44.841Z,978.8
2023-03-11T04:58:33.452Z,978.9
2023-03-11T05:01:21.259Z,978.9
2023-03-11T05:04:09.135Z,979
2023-03-11T05:06:57.530Z,979.1
2023-03-11T05:09:45.201Z,979.1
2023-03-11T05:12:33.136Z,979.2
2023-03-11T05:15:20.992Z,979.3
2023-03-11T05:18:08.831Z,979.4
2023-03-11T05:20:56.582Z,979.4
2023-03-11T05:23:45.043Z,979.5
2023-03-11T05:26:32.585Z,979.6
2023-03-11T05:29:20.552Z,979.7
2023-03-11T05:32:08.731Z,979.8
2023-03-11T05:34:56.601Z,979.9
2023-03-11T05:37:44.275Z,979.9
2023-03-11T05:40:34.343Z,980
2023-03-11T05:43:21.803Z,980.2
2023-03-11T05:46:10.245Z,980.2
2023-03-11T05:48:58.117Z,980.3
2023-03-11T05:51:46.428Z,980.5
2023-03-11T05:54:34.638Z,980.5
2023-03-11T05:57:22.334Z,980.6
2023-03-11T06:00:11.029Z,980.7
2023-03-11T06:02:59.981Z,980.8
2023-03-11T06:05:47.969Z,980.7
2023-03-11T06:08:37.364Z,980.8
2023-03-11T06:11:30.527Z,980.9
2023-03-11T06:14:18.308Z,981.1
2023-03-11T06:17:05.955Z,981.2
2023-03-11T06:19:53.582Z,981.4
2023-03-11T06:22:41.296Z,981.4
2023-03-11T06:25:28.876Z,981.5
2023-03-11T06:28:16.515Z,981.6
2023-03-11T06:31:04.174Z,981.7
2023-03-11T06:34:01.513Z,981.7
2023-03-11T06:37:08.570Z,982
2023-03-11T06:39:56.144Z,982.1
2023-03-11T06:42:43.716Z,982.3
2023-03-11T06:45:32.313Z,982.4
2023-03-11T06:48:21.599Z,982.6
2023-03-11T06:51:10.195Z,982.7
2023-03-11T06:53:59.470Z,982.8
2023-03-11T06:56:47.145Z,982.8
2023-03-11T06:59:34.635Z,982.9
2023-03-11T07:02:22.300Z,983.1
2023-03-11T07:05:10.716Z,983.3
2023-03-11T07:07:58.557Z,983.3
2023-03-11T07:10:46.155Z,983.4
2023-03-11T07:13:45.590Z,983.6
2023-03-11T07:16:33.682Z,983.6
2023-03-11T07:19:41.848Z,983.7
2023-03-11T07:22:29.594Z,983.8
2023-03-11T07:25:17.136Z,983.9
2023-03-11T07:28:04.933Z,984
2023-03-11T07:30:52.550Z,984
2023-03-11T07:33:40.956Z,984.1
2023-03-11T07:36:29.390Z,984.2
2023-03-11T07:39:18.879Z,984.3
2023-03-11T07:42:06.523Z,984.4
2023-03-11T07:44:54.255Z,984.5
2023-03-11T07:47:41.831Z,984.6
2023-03-11T07:50:29.366Z,984.7
2023-03-11T07:53:17.009Z,984.7
2023-03-11T07:56:04.618Z,984.8
2023-03-11T07:58:53.874Z,984.9
2023-03-11T08:01:43.829Z,985.1
2023-03-11T08:04:31.860Z,985.1
2023-03-11T08:07:19.956Z,985.3
2023-03-11T08:10:07.747Z,985.4
2023-03-11T08:12:56.784Z,985.5
2023-03-11T08:15:44.555Z,985.6
2023-03-11T08:18:32.433Z,985.7
2023-03-11T08:21:21.151Z,985.7
2023-03-11T08:24:14.038Z,985.9
2023-03-11T08:27:02.971Z,985.9
2023-03-11T08:29:51.343Z,985.9
2023-03-11T08:32:39.054Z,986.1
2023-03-11T08:35:26.972Z,986.1
2023-03-11T08:38:15.437Z,986.3
2023-03-11T08:41:04.682Z,986.3
2023-03-11T08:43:52.739Z,986.5
2023-03-11T08:46:40.908Z,986.5
2023-03-11T08:49:29.047Z,986.5
2023-03-11T08:52:16.921Z,986.6
2023-03-11T08:55:04.935Z,986.6
2023-03-11T08:57:58.368Z,986.7
2023-03-11T09:00:48.392Z,986.8
2023-03-11T09:03:37.982Z,986.9
2023-03-11T09:06:27.177Z,987
2023-03-11T09:09:22.007Z,987.1
2023-03-11T09:12:13.161Z,987.2
2023-03-11T09:15:02.767Z,987.1
2023-03-11T09:17:52.299Z,987.3
2023-03-11T09:20:40.813Z,987.4
2023-03-11T09:23:30.822Z,987.5
2023-03-11T09:26:18.438Z,987.5
2023-03-11T09:29:06.686Z,987.5
2023-03-11T09:31:54.469Z,987.6
2023-03-11T09:34:42.319Z,987.7
2023-03-11T09:37:29.829Z,987.7
2023-03-11T09:40:17.512Z,987.7
2023-03-11T09:43:07.834Z,987.8
2023-03-11T09:46:03.480Z,987.9
2023-03-11T09:49:09.951Z,987.9
2023-03-11T09:52:08.464Z,988.1
2023-03-11T09:54:58.883Z,988.1
2023-03-11T09:57:50.547Z,988.2
2023-03-11T10:00:44.834Z,988.3
2023-03-11T10:03:39.674Z,988.4
2023-03-11T10:06:29.364Z,988.5
2023-03-11T10:09:17.293Z,988.5
2023-03-11T10:12:19.717Z,988.6
2023-03-11T10:15:32.464Z,988.7
2023-03-11T10:18:33.052Z,988.7
2023-03-11T10:21:37.841Z,988.7
2023-03-11T10:24:35.452Z,988.8
2023-03-11T10:27:35.593Z,988.9
2023-03-11T10:30:31.220Z,988.9
2023-03-11T10:33:26.284Z,989
2023-03-11T10:36:20.857Z,989.1
2023-03-11T10:39:12.743Z,989.2
2023-03-11T10:42:00.613Z,989.3
2023-03-11T10:44:52.553Z,989.2
2023-03-11T10:47:40.331Z,989.3
2023-03-11T10:50:28.063Z,989.3
2023-03-11T10:53:19.807Z,989.4
2023-03-11T10:56:08.011Z,989.4
2023-03-11T10:59:10.776Z,989.4
2023-03-11T11:02:10.477Z,989.6
2023-03-11T11:05:12.377Z,989.6
2023-03-11T11:08:14.902Z,989.7
2023-03-11T11:11:04.783Z,989.7
2023-03-11T11:14:06.706Z,989.8
2023-03-11T11:16:55.091Z,989.9
2023-03-11T11:19:42.875Z,989.8
2023-03-11T11:22:31.477Z,989.9
2023-03-11T11:25:19.312Z,989.9
2023-03-11T11:28:14.206Z,990
2023-03-11T11:31:04.052Z,990
2023-03-11T11:34:05.661Z,990.2
2023-03-11T11:37:14.195Z,990.1
2023-03-11T11:40:02.389Z,990.3
2023-03-11T11:43:02.097Z,990.3
2023-03-11T11:45:58.384Z,990.4
2023-03-11T11:48:50.960Z,990.5
2023-03-11T11:51:49.241Z,990.5
2023-03-11T11:54:41.330Z,990.6
2023-03-11T11:57:35.970Z,990.4
2023-03-11T12:00:24.222Z,990.6
2023-03-11T12:03:22.455Z,990.7
2023-03-11T12:06:30.212Z,990.6
2023-03-11T12:09:25.545Z,990.7
2023-03-11T12:12:20.100Z,990.8
2023-03-11T12:15:16.019Z,990.8
2023-03-11T12:18:09.407Z,990.8
2023-03-11T12:21:02.762Z,990.8
2023-03-11T12:24:08.335Z,991
2023-03-11T12:27:16.449Z,990.9
2023-03-11T12:30:09.840Z,991
2023-03-11T12:33:03.640Z,990.9
2023-03-11T12:35:57.117Z,991.1
2023-03-11T12:38:47.113Z,991.1
2023-03-11T12:41:35.829Z,991.2
2023-03-11T12:44:26.992Z,991.1
2023-03-11T12:47:16.483Z,991.3
2023-03-11T12:50:10.257Z,991.3
2023-03-11T12:53:29.870Z,991.4
2023-03-11T12:56:31.505Z,991.5
2023-03-11T12:59:25.274Z,991.4
2023-03-11T13:02:52.667Z,991.6
2023-03-11T13:06:01.554Z,991.6
2023-03-11T13:09:06.013Z,991.6
2023-03-11T13:12:01.233Z,991.7
2023-03-11T13:15:24.552Z,991.8
2023-03-11T13:18:31.372Z,991.8
2023-03-11T13:21:19.364Z,991.9
2023-03-11T13:24:26.212Z,992
2023-03-11T13:27:34.919Z,992.1
2023-03-11T13:30:29.208Z,992.1
2023-03-11T13:33:24.368Z,992.2
2023-03-11T13:36:27.157Z,992.1
2023-03-11T13:39:29.666Z,992.2
2023-03-11T13:42:31.583Z,992.3
2023-03-11T13:45:23.035Z,992.3
2023-03-11T13:48:15.868Z,992.3
2023-03-11T13:51:11.574Z,992.4
2023-03-11T13:54:04.551Z,992.5
2023-03-11T13:57:10.595Z,992.6
2023-03-11T14:00:14.373Z,992.6
2023-03-11T14:03:08.813Z,992.6
2023-03-11T14:05:59.018Z,992.7
2023-03-11T14:08:49.791Z,992.7
2023-03-11T14:11:39.862Z,992.7
2023-03-11T14:14:32.266Z,992.8
2023-03-11T14:17:32.504Z,992.8
2023-03-11T14:20:20.327Z,993
2023-03-11T14:23:12.280Z,993
2023-03-11T14:26:05.021Z,993
2023-03-11T14:28:57.563Z,993
2023-03-11T14:31:47.580Z,993.1
2023-03-11T14:34:35.648Z,993.1
2023-03-11T14:37:26.571Z,993.2
2023-03-11T14:40:18.817Z,993.2
2023-03-11T14:43:14.026Z,993.2
2023-03-11T14:46:01.914Z,993.3
2023-03-11T14:48:51.043Z,993.3
2023-03-11T14:51:41.047Z,993.3
2023-03-11T14:54:29.812Z,993.4
2023-03-11T14:57:22.321Z,993.4
2023-03-11T15:00:15.968Z,993.4
2023-03-11T15:03:07.380Z,993.5
2023-03-11T15:06:05.211Z,993.6
2023-03-11T15:08:55.479Z,993.6
2023-03-11T15:12:01.482Z,993.8
2023-03-11T15:14:50.492Z,993.8
2023-03-11T15:17:43.832Z,993.7
2023-03-11T15:20:38.617Z,994
2023-03-11T15:23:26.541Z,993.8
2023-03-11T15:26:14.764Z,993.9
2023-03-11T15:29:07.140Z,993.9
2023-03-11T15:32:01.122Z,994.1
2023-03-11T15:35:18.693Z,994
2023-03-11T15:38:08.816Z,994.1
2023-03-11T15:41:04.780Z,994.1
2023-03-11T15:43:56.109Z,994.2
2023-03-11T15:46:46.649Z,994.3
2023-03-11T15:49:34.280Z,994.3
2023-03-11T15:52:22.116Z,994.4
2023-03-11T15:55:10.764Z,994.3
2023-03-11T15:57:59.428Z,994.3
2023-03-11T16:00:51.212Z,994.3
2023-03-11T16:03:41.316Z,994.4
2023-03-11T16:06:29.581Z,994.5
2023-03-11T16:09:18.091Z,994.5
2023-03-11T16:12:06.522Z,994.5
2023-03-11T16:15:01.337Z,994.5
2023-03-11T16:17:50.468Z,994.6
2023-03-11T16:20:39.715Z,994.6
2023-03-11T16:23:30.772Z,994.6
2023-03-11T16:26:22.561Z,994.7
2023-03-11T16:29:19.094Z,994.7
2023-03-11T16:32:08.768Z,994.8
2023-03-11T16:34:56.635Z,994.8
2023-03-11T16:37:46.030Z,994.9
2023-03-11T16:40:34.482Z,994.8
2023-03-11T16:43:22.073Z,994.9
2023-03-11T16:46:10.089Z,995
2023-03-11T16:48:57.978Z,995
2023-03-11T16:51:46.084Z,995.1
2023-03-11T16:54:33.594Z,995.1
2023-03-11T16:57:21.193Z,995.1
2023-03-11T17:00:08.830Z,995.2
2023-03-11T17:02:59.441Z,995.2
2023-03-11T17:05:47.922Z,995.2
2023-03-11T17:08:38.255Z,995.3
2023-03-11T17:11:26.572Z,995.4
2023-03-11T17:14:16.980Z,995.4
2023-03-11T17:17:05.114Z,995.4
2023-03-11T17:19:52.746Z,995.5
2023-03-11T17:22:40.372Z,995.5
2023-03-11T17:25:28.328Z,995.5
2023-03-11T17:28:16.018Z,995.6
2023-03-11T17:31:04.441Z,995.6
2023-03-11T17:33:56.173Z,995.7
2023-03-11T17:36:43.862Z,995.8
2023-03-11T17:39:31.545Z,995.8
2023-03-11T17:42:21.161Z,995.8
2023-03-11T17:45:09.244Z,995.8
2023-03-11T17:47:57.421Z,995.9
2023-03-11T17:50:44.979Z,995.9
2023-03-11T17:53:32.837Z,996
2023-03-11T17:56:21.672Z,996
2023-03-11T17:59:10.038Z,996
2023-03-11T18:01:58.113Z,996
2023-03-11T18:04:46.314Z,996
2023-03-11T18:07:37.043Z,996.2
2023-03-11T18:10:25.385Z,996.2
2023-03-11T18:13:14.430Z,996.2
2023-03-11T18:16:02.538Z,996.2
2023-03-11T18:18:52.963Z,996.3
2023-03-11T18:21:42.454Z,996.3
2023-03-11T18:24:30.340Z,996.3
2023-03-11T18:27:18.046Z,996.4
2023-03-11T18:30:06.009Z,996.4
2023-03-11T18:32:56.403Z,996.4
2023-03-11T18:35:44.161Z,996.5
2023-03-11T18:38:31.988Z,996.5
2023-03-11T18:41:19.675Z,996.6
2023-03-11T18:44:07.939Z,996.6
2023-03-11T18:46:56.006Z,996.6
2023-03-11T18:49:43.658Z,996.7
2023-03-11T18:52:32.803Z,996.6
2023-03-11T18:55:20.972Z,996.6
2023-03-11T18:58:09.345Z,996.7
2023-03-11T19:01:00.976Z,996.7
2023-03-11T19:03:51.365Z,996.7
2023-03-11T19:06:41.665Z,996.7
2023-03-11T19:09:29.256Z,996.7
2023-03-11T19:12:16.911Z,996.8
2023-03-11T19:15:04.559Z,996.8
2023-03-11T19:18:05.848Z,996.8
2023-03-11T19:20:55.071Z,996.8
2023-03-11T19:23:43.567Z,997
2023-03-11T19:26:44.229Z,996.9
2023-03-11T19:29:42.723Z,997
2023-03-11T19:32:30.425Z,997.1
2023-03-11T19:35:18.876Z,997.2
2023-03-11T19:38:08.639Z,997.1
2023-03-11T19:40:56.630Z,997.2
2023-03-11T19:43:50.145Z,997.3
2023-03-11T19:46:38.713Z,997.3
2023-03-11T19:49:26.522Z,997.3
2023-03-11T19:52:14.295Z,997.3
2023-03-11T19:55:01.997Z,997.3
2023-03-11T19:57:50.867Z,997.3
2023-03-11T20:00:38.685Z,997.3
2023-03-11T20:03:27.468Z,997.2
2023-03-11T20:06:15.533Z,997.2
2023-03-11T20:09:05.991Z,997.3
2023-03-11T20:11:53.724Z,997.3
2023-03-11T20:14:41.523Z,997.4
2023-03-11T20:17:30.953Z,997.3
2023-03-11T20:20:18.806Z,997.4
2023-03-11T20:23:06.708Z,997.4
2023-03-11T20:26:05.818Z,997.3
2023-03-11T20:28:56.677Z,997.4
2023-03-11T20:31:44.411Z,997.4
2023-03-11T20:34:32.195Z,997.4
2023-03-11T20:37:20.075Z,997.5
2023-03-11T20:40:07.931Z,997.5
2023-03-11T20:42:59.006Z,997.5
2023-03-11T20:45:47.179Z,997.5
2023-03-11T20:48:34.866Z,997.4
2023-03-11T20:51:24.889Z,997.5
2023-03-11T20:54:13.797Z,997.5
2023-03-11T20:57:01.876Z,997.4
2023-03-11T20:59:50.166Z,997.4
2023-03-11T21:02:38.095Z,997.5
2023-03-11T21:05:27.921Z,997.4
2023-03-11T21:08:19.924Z,997.5
2023-03-11T21:11:08.740Z,997.5
2023-03-11T21:13:56.978Z,997.5
2023-03-11T21:16:44.833Z,997.5
2023-03-11T21:19:32.990Z,997.5
2023-03-11T21:22:21.828Z,997.5
2023-03-11T21:25:10.176Z,997.5
2023-03-11T21:27:57.798Z,997.5
2023-03-11T21:30:45.458Z,997.5
2023-03-11T21:33:33.113Z,997.4
2023-03-11T21:36:21.022Z,997.4
2023-03-11T21:39:09.626Z,997.4
2023-03-11T21:41:57.550Z,997.4
2023-03-11T21:44:45.237Z,997.4
2023-03-11T21:47:32.831Z,997.3
2023-03-11T21:50:21.898Z,997.3
2023-03-11T21:53:09.845Z,997.4
2023-03-11T21:55:57.508Z,997.3
2023-03-11T21:58:47.485Z,997.3
2023-03-11T22:01:38.463Z,997.3
2023-03-11T22:04:26.482Z,997.2
2023-03-11T22:07:15.870Z,997.3
2023-03-11T22:10:04.009Z,997.2
2023-03-11T22:12:53.468Z,997.2
2023-03-11T22:15:41.146Z,997.2
2023-03-11T22:18:28.914Z,997.2
2023-03-11T22:21:19.602Z,997.2
2023-03-11T22:24:07.736Z,997.2
2023-03-11T22:26:55.709Z,997.2
2023-03-11T22:32:51.171Z,997.2
2023-03-11T22:35:47.288Z,997.2
2023-03-11T22:38:36.342Z,997.3
2023-03-11T22:41:24.652Z,997.2
2023-03-11T22:44:13.419Z,997.1
2023-03-11T22:47:01.116Z,997.2
2023-03-11T22:49:49.514Z,997.2
2023-03-11T22:52:38.372Z,997.2
2023-03-11T22:55:26.236Z,997.1
2023-03-11T22:58:15.120Z,997.1
2023-03-11T23:01:02.932Z,997.1
2023-03-11T23:03:52.416Z,997.1
2023-03-11T23:06:40.251Z,997.1
2023-03-11T23:09:28.117Z,997
2023-03-11T23:12:16.282Z,997
2023-03-11T23:15:03.943Z,996.9
2023-03-11T23:17:55.378Z,996.8
2023-03-11T23:20:42.977Z,997
2023-03-11T23:23:30.716Z,997
2023-03-11T23:26:18.431Z,996.9
2023-03-11T23:29:07.780Z,996.9
2023-03-11T23:32:01.579Z,997
2023-03-11T23:34:49.720Z,996.9
2023-03-11T23:37:37.542Z,996.9
2023-03-11T23:40:25.842Z,996.8
2023-03-11T23:43:15.053Z,996.9
2023-03-11T23:46:02.642Z,996.9
2023-03-11T23:48:50.838Z,996.8
2023-03-11T23:51:38.465Z,996.8
2023-03-11T23:54:26.323Z,996.8
2023-03-11T23:57:15.132Z,996.8
